sensor_id;sensor_type;location;lat;lon;timestamp;noise_LAeq;noise_LA_min;noise_LA_max;noise_LA01;noise_LA95
78074;Laerm;67283;50.960;13.856;2023-03-01T00:01:50;37.83;35.68;53.49;;
78074;Laerm;67283;50.960;13.856;2023-03-01T00:04:18;37.85;36.18;39.73;;
78074;Laerm;67283;50.960;13.856;2023-03-01T00:06:49;58.24;36.34;76.86;;
78074;Laerm;67283;50.960;13.856;2023-03-01T00:09:17;38.03;35.76;39.60;;
78074;Laerm;67283;50.960;13.856;2023-03-01T00:11:45;53.00;36.54;72.19;;
78074;Laerm;67283;50.960;13.856;2023-03-01T00:14:13;38.31;35.89;55.18;;
78074;Laerm;67283;50.960;13.856;2023-03-01T00:16:42;38.34;36.19;56.82;;
78074;Laerm;67283;50.960;13.856;2023-03-01T00:19:12;57.53;36.20;76.29;;
78074;Laerm;67283;50.960;13.856;2023-03-01T00:21:40;38.17;36.39;39.64;;
78074;Laerm;67283;50.960;13.856;2023-03-01T00:24:11;38.12;36.12;40.25;;
78074;Laerm;67283;50.960;13.856;2023-03-01T00:26:39;37.98;36.26;39.57;;
78074;Laerm;67283;50.960;13.856;2023-03-01T00:29:07;38.21;36.44;47.32;;
78074;Laerm;67283;50.960;13.856;2023-03-01T00:31:36;38.10;36.31;40.12;;
78074;Laerm;67283;50.960;13.856;2023-03-01T00:34:04;38.24;36.28;40.99;;
78074;Laerm;67283;50.960;13.856;2023-03-01T00:36:35;38.27;36.48;41.03;;
78074;Laerm;67283;50.960;13.856;2023-03-01T00:39:03;38.33;36.34;40.10;;
78074;Laerm;67283;50.960;13.856;2023-03-01T00:41:35;38.51;36.67;41.75;;
78074;Laerm;67283;50.960;13.856;2023-03-01T00:44:05;38.51;36.67;41.75;;
78074;Laerm;67283;50.960;13.856;2023-03-01T00:46:33;38.51;36.67;41.75;;
78074;Laerm;67283;50.960;13.856;2023-03-01T00:49:01;38.71;36.40;42.77;;
78074;Laerm;67283;50.960;13.856;2023-03-01T00:51:30;52.75;36.38;72.11;;
78074;Laerm;67283;50.960;13.856;2023-03-01T00:53:58;38.72;36.57;49.24;;
78074;Laerm;67283;50.960;13.856;2023-03-01T00:56:27;38.17;36.30;40.95;;
78074;Laerm;67283;50.960;13.856;2023-03-01T00:58:58;38.03;36.20;40.54;;
78074;Laerm;67283;50.960;13.856;2023-03-01T01:01:26;38.39;36.24;43.92;;
78074;Laerm;67283;50.960;13.856;2023-03-01T01:03:57;47.66;36.49;62.82;;
78074;Laerm;67283;50.960;13.856;2023-03-01T01:06:26;38.24;36.30;41.17;;
78074;Laerm;67283;50.960;13.856;2023-03-01T01:08:55;38.33;35.77;41.07;;
78074;Laerm;67283;50.960;13.856;2023-03-01T01:11:24;38.69;36.38;41.18;;
78074;Laerm;67283;50.960;13.856;2023-03-01T01:13:53;38.24;36.30;41.84;;
78074;Laerm;67283;50.960;13.856;2023-03-01T01:16:24;38.72;36.54;45.19;;
78074;Laerm;67283;50.960;13.856;2023-03-01T01:18:53;38.34;36.59;40.83;;
78074;Laerm;67283;50.960;13.856;2023-03-01T01:21:22;48.16;36.45;65.19;;
78074;Laerm;67283;50.960;13.856;2023-03-01T01:23:51;38.63;36.44;64.23;;
78074;Laerm;67283;50.960;13.856;2023-03-01T01:26:20;37.86;35.68;40.32;;
78074;Laerm;67283;50.960;13.856;2023-03-01T01:28:49;37.98;36.13;40.44;;
78074;Laerm;67283;50.960;13.856;2023-03-01T01:31:17;37.98;36.13;40.44;;
78074;Laerm;67283;50.960;13.856;2023-03-01T01:33:48;38.15;36.24;41.15;;
78074;Laerm;67283;50.960;13.856;2023-03-01T01:36:16;38.25;36.38;41.56;;
78074;Laerm;67283;50.960;13.856;2023-03-01T01:38:44;38.21;36.40;60.30;;
78074;Laerm;67283;50.960;13.856;2023-03-01T01:41:13;37.93;36.16;40.32;;
78074;Laerm;67283;50.960;13.856;2023-03-01T01:43:42;38.01;36.22;39.93;;
78074;Laerm;67283;50.960;13.856;2023-03-01T01:46:14;38.24;35.86;40.77;;
78074;Laerm;67283;50.960;13.856;2023-03-01T01:48:45;38.34;36.38;41.29;;
78074;Laerm;67283;50.960;13.856;2023-03-01T01:51:17;38.35;36.59;40.44;;
78074;Laerm;67283;50.960;13.856;2023-03-01T01:53:47;53.13;36.44;73.55;;
78074;Laerm;67283;50.960;13.856;2023-03-01T01:56:17;38.79;36.28;58.68;;
78074;Laerm;67283;50.960;13.856;2023-03-01T01:58:46;38.55;36.50;54.58;;
78074;Laerm;67283;50.960;13.856;2023-03-01T02:01:15;38.09;36.09;39.95;;
78074;Laerm;67283;50.960;13.856;2023-03-01T02:03:44;38.07;36.44;42.87;;
78074;Laerm;67283;50.960;13.856;2023-03-01T02:06:19;38.14;36.11;52.34;;
78074;Laerm;67283;50.960;13.856;2023-03-01T02:08:53;38.04;36.38;48.07;;
78074;Laerm;67283;50.960;13.856;2023-03-01T02:11:23;51.03;36.73;68.74;;
78074;Laerm;67283;50.960;13.856;2023-03-01T02:13:51;38.37;36.46;45.78;;
78074;Laerm;67283;50.960;13.856;2023-03-01T02:16:20;39.02;36.44;66.38;;
78074;Laerm;67283;50.960;13.856;2023-03-01T02:18:48;38.51;36.64;52.32;;
78074;Laerm;67283;50.960;13.856;2023-03-01T02:21:24;38.79;36.70;41.39;;
78074;Laerm;67283;50.960;13.856;2023-03-01T02:23:56;38.73;36.79;48.32;;
78074;Laerm;67283;50.960;13.856;2023-03-01T02:26:29;38.45;36.40;42.75;;
78074;Laerm;67283;50.960;13.856;2023-03-01T02:29:04;38.20;36.35;40.04;;
78074;Laerm;67283;50.960;13.856;2023-03-01T02:31:33;38.91;36.55;47.55;;
78074;Laerm;67283;50.960;13.856;2023-03-01T02:34:11;38.25;36.50;44.15;;
78074;Laerm;67283;50.960;13.856;2023-03-01T02:36:40;53.22;35.60;72.46;;
78074;Laerm;67283;50.960;13.856;2023-03-01T02:39:12;38.05;36.25;56.42;;
78074;Laerm;67283;50.960;13.856;2023-03-01T02:41:45;37.94;35.87;41.81;;
78074;Laerm;67283;50.960;13.856;2023-03-01T02:44:17;38.03;36.29;39.91;;
78074;Laerm;67283;50.960;13.856;2023-03-01T02:46:46;38.52;36.24;44.61;;
78074;Laerm;67283;50.960;13.856;2023-03-01T02:49:18;41.87;36.94;52.24;;
78074;Laerm;67283;50.960;13.856;2023-03-01T02:51:49;38.31;36.33;40.74;;
78074;Laerm;67283;50.960;13.856;2023-03-01T02:54:21;37.93;36.15;40.81;;
78074;Laerm;67283;50.960;13.856;2023-03-01T02:56:52;37.93;36.15;40.81;;
78074;Laerm;67283;50.960;13.856;2023-03-01T02:59:24;38.36;36.40;42.69;;
78074;Laerm;67283;50.960;13.856;2023-03-01T03:01:54;39.34;36.46;45.09;;
78074;Laerm;67283;50.960;13.856;2023-03-01T03:04:22;38.65;36.60;43.75;;
78074;Laerm;67283;50.960;13.856;2023-03-01T03:06:50;53.15;36.66;70.66;;
78074;Laerm;67283;50.960;13.856;2023-03-01T03:09:19;53.82;36.26;71.53;;
78074;Laerm;67283;50.960;13.856;2023-03-01T03:11:47;56.44;36.81;72.36;;
78074;Laerm;67283;50.960;13.856;2023-03-01T03:14:16;49.53;36.71;66.64;;
78074;Laerm;67283;50.960;13.856;2023-03-01T03:16:48;38.48;36.47;40.49;;
78074;Laerm;67283;50.960;13.856;2023-03-01T03:19:16;48.76;36.47;70.15;;
78074;Laerm;67283;50.960;13.856;2023-03-01T03:21:45;53.18;36.10;71.11;;
78074;Laerm;67283;50.960;13.856;2023-03-01T03:24:14;37.99;36.04;40.13;;
78074;Laerm;67283;50.960;13.856;2023-03-01T03:26:43;38.14;36.28;39.95;;
78074;Laerm;67283;50.960;13.856;2023-03-01T03:29:11;38.22;36.40;41.88;;
78074;Laerm;67283;50.960;13.856;2023-03-01T03:31:39;38.54;36.55;46.08;;
78074;Laerm;67283;50.960;13.856;2023-03-01T03:34:10;38.96;37.12;41.25;;
78074;Laerm;67283;50.960;13.856;2023-03-01T03:36:42;38.62;36.79;41.56;;
78074;Laerm;67283;50.960;13.856;2023-03-01T03:39:11;55.93;36.86;70.38;;
78074;Laerm;67283;50.960;13.856;2023-03-01T03:41:39;56.09;36.79;73.08;;
78074;Laerm;67283;50.960;13.856;2023-03-01T03:44:07;54.42;36.32;70.63;;
78074;Laerm;67283;50.960;13.856;2023-03-01T03:46:35;58.43;36.47;73.10;;
78074;Laerm;67283;50.960;13.856;2023-03-01T03:49:03;58.43;36.47;73.10;;
78074;Laerm;67283;50.960;13.856;2023-03-01T03:51:33;49.41;36.21;70.88;;
78074;Laerm;67283;50.960;13.856;2023-03-01T03:54:02;38.32;36.44;53.16;;
78074;Laerm;67283;50.960;13.856;2023-03-01T03:56:30;46.12;36.35;65.35;;
78074;Laerm;67283;50.960;13.856;2023-03-01T03:58:58;40.32;36.41;51.49;;
78074;Laerm;67283;50.960;13.856;2023-03-01T04:01:26;61.71;37.03;75.31;;
78074;Laerm;67283;50.960;13.856;2023-03-01T04:03:54;58.97;36.13;75.96;;
78074;Laerm;67283;50.960;13.856;2023-03-01T04:06:27;61.08;36.36;75.51;;
78074;Laerm;67283;50.960;13.856;2023-03-01T04:08:58;38.80;35.33;50.90;;
78074;Laerm;67283;50.960;13.856;2023-03-01T04:11:29;55.40;36.02;71.13;;
78074;Laerm;67283;50.960;13.856;2023-03-01T04:13:59;60.30;35.65;76.79;;
78074;Laerm;67283;50.960;13.856;2023-03-01T04:16:29;60.30;35.65;76.79;;
78074;Laerm;67283;50.960;13.856;2023-03-01T04:18:57;56.19;36.31;71.94;;
78074;Laerm;67283;50.960;13.856;2023-03-01T04:21:25;61.36;36.82;72.95;;
78074;Laerm;67283;50.960;13.856;2023-03-01T04:23:54;57.64;36.86;71.86;;
78074;Laerm;67283;50.960;13.856;2023-03-01T04:26:24;59.59;36.68;75.33;;
78074;Laerm;67283;50.960;13.856;2023-03-01T04:28:52;60.25;37.60;73.35;;
78074;Laerm;67283;50.960;13.856;2023-03-01T04:31:20;64.03;37.09;78.44;;
78074;Laerm;67283;50.960;13.856;2023-03-01T04:33:49;60.13;36.92;72.47;;
78074;Laerm;67283;50.960;13.856;2023-03-01T04:36:19;61.36;37.00;73.31;;
78074;Laerm;67283;50.960;13.856;2023-03-01T04:38:47;61.04;36.47;78.46;;
78074;Laerm;67283;50.960;13.856;2023-03-01T04:41:16;61.04;36.47;78.46;;
78074;Laerm;67283;50.960;13.856;2023-03-01T04:43:47;60.54;36.37;76.69;;
78074;Laerm;67283;50.960;13.856;2023-03-01T04:46:16;60.77;36.40;73.78;;
78074;Laerm;67283;50.960;13.856;2023-03-01T04:48:46;64.87;37.97;78.80;;
78074;Laerm;67283;50.960;13.856;2023-03-01T04:51:14;59.38;37.05;73.32;;
78074;Laerm;67283;50.960;13.856;2023-03-01T04:53:43;61.92;37.54;74.34;;
78074;Laerm;67283;50.960;13.856;2023-03-01T04:56:11;57.57;37.78;73.08;;
78074;Laerm;67283;50.960;13.856;2023-03-01T04:58:43;60.46;37.64;73.51;;
78074;Laerm;67283;50.960;13.856;2023-03-01T05:01:14;38.32;36.09;54.98;;
78074;Laerm;67283;50.960;13.856;2023-03-01T05:03:43;59.36;36.05;77.18;;
78074;Laerm;67283;50.960;13.856;2023-03-01T05:06:12;62.50;37.75;76.77;;
78074;Laerm;67283;50.960;13.856;2023-03-01T05:08:40;57.98;37.38;72.92;;
78074;Laerm;67283;50.960;13.856;2023-03-01T05:11:09;57.98;37.38;72.92;;
78074;Laerm;67283;50.960;13.856;2023-03-01T05:13:37;60.14;37.16;73.88;;
78074;Laerm;67283;50.960;13.856;2023-03-01T05:16:07;52.64;36.12;70.94;;
78074;Laerm;67283;50.960;13.856;2023-03-01T05:18:39;57.01;37.10;71.16;;
78074;Laerm;67283;50.960;13.856;2023-03-01T05:21:09;62.22;37.67;74.56;;
78074;Laerm;67283;50.960;13.856;2023-03-01T05:23:38;64.19;39.00;77.09;;
78074;Laerm;67283;50.960;13.856;2023-03-01T05:26:06;64.19;39.00;77.09;;
78074;Laerm;67283;50.960;13.856;2023-03-01T05:28:35;63.58;37.49;76.39;;
78074;Laerm;67283;50.960;13.856;2023-03-01T05:31:03;62.93;36.99;74.20;;
78074;Laerm;67283;50.960;13.856;2023-03-01T05:33:35;62.57;38.28;74.74;;
78074;Laerm;67283;50.960;13.856;2023-03-01T05:36:06;58.89;37.07;73.81;;
78074;Laerm;67283;50.960;13.856;2023-03-01T05:38:34;63.25;38.02;76.99;;
78074;Laerm;67283;50.960;13.856;2023-03-01T05:41:03;62.00;36.80;80.19;;
78074;Laerm;67283;50.960;13.856;2023-03-01T05:43:31;62.30;37.72;75.58;;
78074;Laerm;67283;50.960;13.856;2023-03-01T05:45:59;60.73;37.44;73.44;;
78074;Laerm;67283;50.960;13.856;2023-03-01T05:48:28;62.31;38.27;73.85;;
78074;Laerm;67283;50.960;13.856;2023-03-01T05:50:58;67.55;38.65;83.44;;
78074;Laerm;67283;50.960;13.856;2023-03-01T05:53:29;63.97;37.28;75.52;;
78074;Laerm;67283;50.960;13.856;2023-03-01T05:55:57;63.13;43.05;72.12;;
78074;Laerm;67283;50.960;13.856;2023-03-01T05:58:25;62.73;38.10;73.14;;
78074;Laerm;67283;50.960;13.856;2023-03-01T06:00:54;63.34;39.16;73.75;;
78074;Laerm;67283;50.960;13.856;2023-03-01T06:03:22;63.34;39.16;73.75;;
78074;Laerm;67283;50.960;13.856;2023-03-01T06:05:50;62.03;39.00;74.13;;
78074;Laerm;67283;50.960;13.856;2023-03-01T06:08:23;61.65;39.39;73.24;;
78074;Laerm;67283;50.960;13.856;2023-03-01T06:10:54;61.35;37.53;73.06;;
78074;Laerm;67283;50.960;13.856;2023-03-01T06:13:23;63.85;41.49;77.55;;
78074;Laerm;67283;50.960;13.856;2023-03-01T06:15:51;59.55;37.06;73.39;;
78074;Laerm;67283;50.960;13.856;2023-03-01T06:18:19;64.05;38.14;77.20;;
78074;Laerm;67283;50.960;13.856;2023-03-01T06:20:52;64.88;37.38;79.70;;
78074;Laerm;67283;50.960;13.856;2023-03-01T06:23:20;62.69;39.83;74.57;;
78074;Laerm;67283;50.960;13.856;2023-03-01T06:25:48;62.84;39.01;75.56;;
78074;Laerm;67283;50.960;13.856;2023-03-01T06:28:19;63.40;44.18;75.98;;
78074;Laerm;67283;50.960;13.856;2023-03-01T06:30:47;62.59;38.40;74.26;;
78074;Laerm;67283;50.960;13.856;2023-03-01T06:33:16;61.04;38.24;72.75;;
78074;Laerm;67283;50.960;13.856;2023-03-01T06:35:45;63.20;43.65;74.94;;
78074;Laerm;67283;50.960;13.856;2023-03-01T06:38:13;62.13;38.91;74.46;;
78074;Laerm;67283;50.960;13.856;2023-03-01T06:40:44;56.12;38.15;72.50;;
78074;Laerm;67283;50.960;13.856;2023-03-01T06:43:12;63.78;41.12;74.36;;
78074;Laerm;67283;50.960;13.856;2023-03-01T06:45:43;66.06;38.48;83.60;;
78074;Laerm;67283;50.960;13.856;2023-03-01T06:48:11;57.92;38.38;72.65;;
78074;Laerm;67283;50.960;13.856;2023-03-01T06:50:39;57.92;38.38;72.65;;
78074;Laerm;67283;50.960;13.856;2023-03-01T06:53:07;58.49;38.16;72.29;;
78074;Laerm;67283;50.960;13.856;2023-03-01T06:55:35;62.63;39.75;78.77;;
78074;Laerm;67283;50.960;13.856;2023-03-01T06:58:03;61.56;41.36;74.59;;
78074;Laerm;67283;50.960;13.856;2023-03-01T07:00:32;62.17;38.01;72.80;;
78074;Laerm;67283;50.960;13.856;2023-03-01T07:03:03;56.54;37.09;70.63;;
78074;Laerm;67283;50.960;13.856;2023-03-01T07:05:31;56.54;37.09;70.63;;
78074;Laerm;67283;50.960;13.856;2023-03-01T07:08:00;61.97;37.75;77.27;;
78074;Laerm;67283;50.960;13.856;2023-03-01T07:10:29;59.65;39.36;72.44;;
78074;Laerm;67283;50.960;13.856;2023-03-01T07:12:57;59.56;38.11;72.74;;
78074;Laerm;67283;50.960;13.856;2023-03-01T07:15:26;59.56;38.11;72.74;;
78074;Laerm;67283;50.960;13.856;2023-03-01T07:17:55;61.77;38.56;79.78;;
78074;Laerm;67283;50.960;13.856;2023-03-01T07:20:26;57.27;38.27;72.65;;
78074;Laerm;67283;50.960;13.856;2023-03-01T07:22:55;65.14;41.75;80.50;;
78074;Laerm;67283;50.960;13.856;2023-03-01T07:25:23;62.37;38.71;76.91;;
78074;Laerm;67283;50.960;13.856;2023-03-01T07:27:52;61.22;38.77;82.25;;
78074;Laerm;67283;50.960;13.856;2023-03-01T07:30:21;61.04;38.55;78.61;;
78074;Laerm;67283;50.960;13.856;2023-03-01T07:32:51;61.04;38.55;78.61;;
78074;Laerm;67283;50.960;13.856;2023-03-01T07:35:20;61.01;38.20;78.90;;
78074;Laerm;67283;50.960;13.856;2023-03-01T07:37:51;61.18;37.75;74.61;;
78074;Laerm;67283;50.960;13.856;2023-03-01T07:40:19;61.75;37.17;77.71;;
78074;Laerm;67283;50.960;13.856;2023-03-01T07:42:47;58.76;37.83;73.81;;
78074;Laerm;67283;50.960;13.856;2023-03-01T07:45:15;59.48;37.19;72.39;;
78074;Laerm;67283;50.960;13.856;2023-03-01T07:47:43;59.23;39.44;72.24;;
78074;Laerm;67283;50.960;13.856;2023-03-01T07:50:11;53.62;38.02;71.06;;
78074;Laerm;67283;50.960;13.856;2023-03-01T07:52:40;53.50;37.78;70.34;;
78074;Laerm;67283;50.960;13.856;2023-03-01T07:55:11;61.21;37.08;74.81;;
78074;Laerm;67283;50.960;13.856;2023-03-01T07:57:39;57.94;37.20;70.73;;
78074;Laerm;67283;50.960;13.856;2023-03-01T08:00:09;55.33;37.14;69.99;;
78074;Laerm;67283;50.960;13.856;2023-03-01T08:02:38;60.08;38.64;72.63;;
78074;Laerm;67283;50.960;13.856;2023-03-01T08:05:07;56.01;37.97;71.87;;
78074;Laerm;67283;50.960;13.856;2023-03-01T08:07:35;58.80;38.04;72.97;;
78074;Laerm;67283;50.960;13.856;2023-03-01T08:10:03;57.99;37.88;72.79;;
78074;Laerm;67283;50.960;13.856;2023-03-01T08:12:34;59.10;37.75;75.41;;
78074;Laerm;67283;50.960;13.856;2023-03-01T08:15:02;59.74;37.64;74.45;;
78074;Laerm;67283;50.960;13.856;2023-03-01T08:17:31;63.12;38.33;78.42;;
78074;Laerm;67283;50.960;13.856;2023-03-01T08:19:59;60.35;37.77;72.34;;
78074;Laerm;67283;50.960;13.856;2023-03-01T08:22:28;58.92;37.60;81.60;;
78074;Laerm;67283;50.960;13.856;2023-03-01T08:24:56;58.61;38.22;79.62;;
78074;Laerm;67283;50.960;13.856;2023-03-01T08:27:24;59.23;38.29;73.95;;
78074;Laerm;67283;50.960;13.856;2023-03-01T08:29:55;57.61;39.29;79.73;;
78074;Laerm;67283;50.960;13.856;2023-03-01T08:32:23;55.23;38.95;70.96;;
78074;Laerm;67283;50.960;13.856;2023-03-01T08:34:51;55.23;38.95;70.96;;
78074;Laerm;67283;50.960;13.856;2023-03-01T08:37:19;61.00;37.48;78.96;;
78074;Laerm;67283;50.960;13.856;2023-03-01T08:39:48;63.80;37.25;79.85;;
78074;Laerm;67283;50.960;13.856;2023-03-01T08:42:16;60.66;37.41;72.38;;
78074;Laerm;67283;50.960;13.856;2023-03-01T08:44:44;62.05;38.09;75.50;;
78074;Laerm;67283;50.960;13.856;2023-03-01T08:47:14;60.97;37.61;72.99;;
78074;Laerm;67283;50.960;13.856;2023-03-01T08:49:42;57.25;38.85;72.36;;
78074;Laerm;67283;50.960;13.856;2023-03-01T08:52:11;67.34;37.42;87.65;;
78074;Laerm;67283;50.960;13.856;2023-03-01T08:54:39;57.89;36.79;75.51;;
78074;Laerm;67283;50.960;13.856;2023-03-01T08:57:07;61.81;36.79;77.96;;
78074;Laerm;67283;50.960;13.856;2023-03-01T08:59:35;60.13;37.32;73.12;;
78074;Laerm;67283;50.960;13.856;2023-03-01T09:02:03;60.13;37.32;73.12;;
78074;Laerm;67283;50.960;13.856;2023-03-01T09:04:34;60.13;37.32;73.12;;
78074;Laerm;67283;50.960;13.856;2023-03-01T09:07:02;62.44;36.88;83.76;;
78074;Laerm;67283;50.960;13.856;2023-03-01T09:09:30;60.96;37.45;75.76;;
78074;Laerm;67283;50.960;13.856;2023-03-01T09:11:58;63.16;42.27;74.15;;
78074;Laerm;67283;50.960;13.856;2023-03-01T09:14:26;61.31;39.47;81.42;;
78074;Laerm;67283;50.960;13.856;2023-03-01T09:16:54;62.72;40.78;76.67;;
78074;Laerm;67283;50.960;13.856;2023-03-01T09:19:22;61.31;40.20;77.92;;
78074;Laerm;67283;50.960;13.856;2023-03-01T09:21:53;59.70;38.29;73.57;;
78074;Laerm;67283;50.960;13.856;2023-03-01T09:24:23;54.97;37.26;68.19;;
78074;Laerm;67283;50.960;13.856;2023-03-01T09:26:54;62.20;37.81;82.20;;
78074;Laerm;67283;50.960;13.856;2023-03-01T09:29:23;60.98;37.45;74.05;;
78074;Laerm;67283;50.960;13.856;2023-03-01T09:31:51;62.79;38.57;74.49;;
78074;Laerm;67283;50.960;13.856;2023-03-01T09:34:20;60.29;37.71;73.37;;
78074;Laerm;67283;50.960;13.856;2023-03-01T09:36:48;58.96;37.25;74.88;;
78074;Laerm;67283;50.960;13.856;2023-03-01T09:39:19;58.15;37.39;74.17;;
78074;Laerm;67283;50.960;13.856;2023-03-01T09:41:49;60.69;37.81;76.64;;
78074;Laerm;67283;50.960;13.856;2023-03-01T09:44:25;55.84;37.27;69.70;;
78074;Laerm;67283;50.960;13.856;2023-03-01T09:46:56;61.21;38.30;72.81;;
78074;Laerm;67283;50.960;13.856;2023-03-01T09:49:25;61.22;37.51;78.36;;
78074;Laerm;67283;50.960;13.856;2023-03-01T09:51:56;58.50;37.23;71.53;;
78074;Laerm;67283;50.960;13.856;2023-03-01T09:54:27;58.84;36.37;76.24;;
78074;Laerm;67283;50.960;13.856;2023-03-01T09:57:06;57.30;37.65;69.63;;
78074;Laerm;67283;50.960;13.856;2023-03-01T09:59:45;60.46;37.36;72.17;;
78074;Laerm;67283;50.960;13.856;2023-03-01T10:02:24;57.97;37.52;71.24;;
78074;Laerm;67283;50.960;13.856;2023-03-01T10:04:55;60.27;37.68;72.65;;
78074;Laerm;67283;50.960;13.856;2023-03-01T10:07:27;60.27;37.68;72.65;;
78074;Laerm;67283;50.960;13.856;2023-03-01T10:10:00;58.59;37.59;77.03;;
78074;Laerm;67283;50.960;13.856;2023-03-01T10:12:33;58.59;37.59;77.03;;
78074;Laerm;67283;50.960;13.856;2023-03-01T10:15:04;58.59;37.59;77.03;;
78074;Laerm;67283;50.960;13.856;2023-03-01T10:17:36;61.15;36.99;81.14;;
78074;Laerm;67283;50.960;13.856;2023-03-01T10:22:54;58.35;37.87;74.35;;
78074;Laerm;67283;50.960;13.856;2023-03-01T10:25:34;59.11;38.06;70.16;;
78074;Laerm;67283;50.960;13.856;2023-03-01T10:28:05;50.19;36.86;72.22;;
78074;Laerm;67283;50.960;13.856;2023-03-01T10:30:38;61.36;37.39;78.76;;
78074;Laerm;67283;50.960;13.856;2023-03-01T10:33:10;62.25;37.54;80.25;;
78074;Laerm;67283;50.960;13.856;2023-03-01T10:35:42;62.93;37.85;80.79;;
78074;Laerm;67283;50.960;13.856;2023-03-01T10:38:10;58.40;39.44;74.09;;
78074;Laerm;67283;50.960;13.856;2023-03-01T10:40:52;56.41;39.45;70.06;;
78074;Laerm;67283;50.960;13.856;2023-03-01T10:43:22;61.25;37.94;73.80;;
78074;Laerm;67283;50.960;13.856;2023-03-01T10:45:51;59.13;36.30;73.46;;
78074;Laerm;67283;50.960;13.856;2023-03-01T10:48:19;61.28;37.86;77.00;;
78074;Laerm;67283;50.960;13.856;2023-03-01T10:50:51;61.28;37.86;77.00;;
78074;Laerm;67283;50.960;13.856;2023-03-01T10:53:32;58.74;37.30;75.40;;
78074;Laerm;67283;50.960;13.856;2023-03-01T10:56:05;56.86;36.58;70.94;;
78074;Laerm;67283;50.960;13.856;2023-03-01T10:58:33;55.46;36.91;70.28;;
78074;Laerm;67283;50.960;13.856;2023-03-01T11:01:02;56.73;37.99;69.74;;
78074;Laerm;67283;50.960;13.856;2023-03-01T11:03:32;59.58;39.15;70.93;;
78074;Laerm;67283;50.960;13.856;2023-03-01T11:06:01;59.42;37.87;75.43;;
78074;Laerm;67283;50.960;13.856;2023-03-01T11:08:37;59.50;38.67;76.32;;
78074;Laerm;67283;50.960;13.856;2023-03-01T11:11:12;57.72;39.36;70.38;;
78074;Laerm;67283;50.960;13.856;2023-03-01T11:13:47;58.26;37.30;72.03;;
78074;Laerm;67283;50.960;13.856;2023-03-01T11:16:22;59.10;37.77;74.20;;
78074;Laerm;67283;50.960;13.856;2023-03-01T11:18:55;60.88;38.64;73.93;;
78074;Laerm;67283;50.960;13.856;2023-03-01T11:21:24;55.82;37.68;71.87;;
78074;Laerm;67283;50.960;13.856;2023-03-01T11:23:53;55.56;37.76;71.89;;
78074;Laerm;67283;50.960;13.856;2023-03-01T11:26:23;58.31;38.34;70.38;;
78074;Laerm;67283;50.960;13.856;2023-03-01T11:28:53;60.73;37.64;78.59;;
78074;Laerm;67283;50.960;13.856;2023-03-01T11:31:23;57.03;37.48;70.65;;
78074;Laerm;67283;50.960;13.856;2023-03-01T11:33:53;51.05;37.31;70.11;;
78074;Laerm;67283;50.960;13.856;2023-03-01T11:36:24;51.41;36.30;68.56;;
78074;Laerm;67283;50.960;13.856;2023-03-01T11:38:54;60.01;42.26;74.03;;
78074;Laerm;67283;50.960;13.856;2023-03-01T11:41:26;61.02;36.62;79.40;;
78074;Laerm;67283;50.960;13.856;2023-03-01T11:43:57;60.09;36.40;81.01;;
78074;Laerm;67283;50.960;13.856;2023-03-01T11:46:29;67.40;36.77;84.90;;
78074;Laerm;67283;50.960;13.856;2023-03-01T11:49:04;57.52;36.72;71.44;;
78074;Laerm;67283;50.960;13.856;2023-03-01T11:51:38;64.26;39.47;80.08;;
78074;Laerm;67283;50.960;13.856;2023-03-01T11:54:13;58.88;36.62;76.97;;
78074;Laerm;67283;50.960;13.856;2023-03-01T11:56:45;56.91;38.35;72.57;;
78074;Laerm;67283;50.960;13.856;2023-03-01T11:59:20;62.67;38.25;72.26;;
78074;Laerm;67283;50.960;13.856;2023-03-01T12:01:56;60.93;39.84;71.85;;
78074;Laerm;67283;50.960;13.856;2023-03-01T12:04:34;50.58;38.04;65.69;;
78074;Laerm;67283;50.960;13.856;2023-03-01T12:07:05;61.97;41.84;76.46;;
78074;Laerm;67283;50.960;13.856;2023-03-01T12:09:49;60.91;39.28;72.21;;
78074;Laerm;67283;50.960;13.856;2023-03-01T12:12:27;58.68;36.50;72.47;;
78074;Laerm;67283;50.960;13.856;2023-03-01T12:15:07;58.78;37.33;72.95;;
78074;Laerm;67283;50.960;13.856;2023-03-01T12:17:43;57.60;37.45;73.59;;
78074;Laerm;67283;50.960;13.856;2023-03-01T12:20:21;62.21;36.38;79.30;;
78074;Laerm;67283;50.960;13.856;2023-03-01T12:23:04;59.52;38.15;72.54;;
78074;Laerm;67283;50.960;13.856;2023-03-01T12:25:43;61.34;37.69;78.51;;
78074;Laerm;67283;50.960;13.856;2023-03-01T12:28:32;59.47;37.68;77.37;;
78074;Laerm;67283;50.960;13.856;2023-03-01T12:31:08;61.11;37.40;73.21;;
78074;Laerm;67283;50.960;13.856;2023-03-01T12:33:48;58.51;37.53;73.33;;
78074;Laerm;67283;50.960;13.856;2023-03-01T12:36:24;63.84;39.61;78.75;;
78074;Laerm;67283;50.960;13.856;2023-03-01T12:38:59;61.11;39.42;73.27;;
78074;Laerm;67283;50.960;13.856;2023-03-01T12:41:35;58.22;37.42;72.59;;
78074;Laerm;67283;50.960;13.856;2023-03-01T12:44:15;57.73;37.48;71.60;;
78074;Laerm;67283;50.960;13.856;2023-03-01T12:46:55;65.15;37.72;83.19;;
78074;Laerm;67283;50.960;13.856;2023-03-01T12:49:28;54.01;36.48;68.55;;
78074;Laerm;67283;50.960;13.856;2023-03-01T12:51:59;54.01;36.48;68.55;;
78074;Laerm;67283;50.960;13.856;2023-03-01T12:54:29;58.14;35.99;76.47;;
78074;Laerm;67283;50.960;13.856;2023-03-01T12:56:59;56.66;36.23;72.00;;
78074;Laerm;67283;50.960;13.856;2023-03-01T12:59:34;60.57;36.65;73.79;;
78074;Laerm;67283;50.960;13.856;2023-03-01T13:02:09;60.94;37.03;71.95;;
78074;Laerm;67283;50.960;13.856;2023-03-01T13:04:46;59.44;37.58;70.93;;
78074;Laerm;67283;50.960;13.856;2023-03-01T13:07:22;61.51;36.04;80.97;;
78074;Laerm;67283;50.960;13.856;2023-03-01T13:09:55;60.97;37.10;73.96;;
78074;Laerm;67283;50.960;13.856;2023-03-01T13:15:31;59.72;39.13;70.23;;
78074;Laerm;67283;50.960;13.856;2023-03-01T13:17:59;57.13;36.68;70.25;;
78074;Laerm;67283;50.960;13.856;2023-03-01T13:20:30;60.49;42.32;72.79;;
78074;Laerm;67283;50.960;13.856;2023-03-01T13:23:00;54.15;36.23;66.70;;
78074;Laerm;67283;50.960;13.856;2023-03-01T13:25:28;59.78;38.10;72.08;;
78074;Laerm;67283;50.960;13.856;2023-03-01T13:30:42;64.65;36.91;80.59;;
78074;Laerm;67283;50.960;13.856;2023-03-01T13:33:33;63.14;40.83;75.47;;
78074;Laerm;67283;50.960;13.856;2023-03-01T13:36:02;59.64;39.72;70.99;;
78074;Laerm;67283;50.960;13.856;2023-03-01T13:38:37;61.13;40.74;70.19;;
78074;Laerm;67283;50.960;13.856;2023-03-01T13:41:06;53.51;37.77;64.82;;
78074;Laerm;67283;50.960;13.856;2023-03-01T13:43:35;62.00;44.47;71.81;;
78074;Laerm;67283;50.960;13.856;2023-03-01T13:46:10;62.95;40.71;76.64;;
78074;Laerm;67283;50.960;13.856;2023-03-01T13:48:39;62.31;41.54;72.80;;
78074;Laerm;67283;50.960;13.856;2023-03-01T13:51:08;63.49;39.93;79.12;;
78074;Laerm;67283;50.960;13.856;2023-03-01T13:53:39;60.71;40.09;71.18;;
78074;Laerm;67283;50.960;13.856;2023-03-01T13:56:09;61.00;38.36;72.99;;
78074;Laerm;67283;50.960;13.856;2023-03-01T13:58:46;62.04;39.29;72.11;;